Station Historical Data
Daily Summary for April 27, 2017 Units:  Metric    English   Both
« Previous Day
Next Day »
Daily Weekly Monthly Yearly Custom
  High: Low: Average:
Temperature: 25.8 °C 16.9 °C 20.1 °C
Dew Point: 21.2 °C 12.9 °C 15.5 °C
Humidity: 89% 65% 75%
Wind Speed: 1.6km/h 0km/h 0km/h
Wind Gust: 8km/h - -
Wind- - NW
Pressure: 1012.4 hPa 1006.7 hPa -
Precipitation: 0.25 mm    
Historical Graphs
 
 
Tabular Data for April 27, 2017
Time Temperature Dew Point Pressure Wind Wind Speed Wind Gust Humidity Rainfall Rate (Hourly) Conditions
00:00 20.2 °C 14.4 °C 1009 hPa Calm   1.6 km/h 69% 0 mm SCT
00:15 19.9 °C 14.1 °C 1008.7 hPa Calm     69% 0 mm SCT
00:30 19.7 °C 14.1 °C 1008.7 hPa Calm   1.6 km/h 70% 0 mm SCT
00:45 19.5 °C 13.9 °C 1009 hPa Calm     70% 0 mm SCT
01:00 19 °C 13.8 °C 1008.7 hPa Calm     72% 0 mm SCT
01:15 18.8 °C 13.6 °C 1008.7 hPa Calm     72% 0 mm SCT
01:30 18.6 °C 13.5 °C 1009 hPa Calm     72% 0 mm SCT
01:45 18.4 °C 13.7 °C 1009.4 hPa Calm     74% 0 mm SCT
02:00 18.1 °C 13.8 °C 1009 hPa Calm   1.6 km/h 76% 0 mm SCT
02:15 18 °C 13.7 °C 1008.7 hPa Calm   1.6 km/h 76% 0 mm SCT
02:30 18.4 °C 13.5 °C 1008.7 hPa Calm   1.6 km/h 73% 0 mm SCT
02:45 18.6 °C 13.6 °C 1008.4 hPa Calm   1.6 km/h 73% 0 mm SCT
03:00 18.6 °C 13.6 °C 1008.4 hPa Calm   1.6 km/h 73% 0 mm SCT
03:15 18.4 °C 13.5 °C 1008.4 hPa Calm   1.6 km/h 73% 0 mm SCT
03:30 18 °C 12.9 °C 1008 hPa Calm     72% 0 mm SCT
03:45 18 °C 12.9 °C 1008 hPa Calm     72% 0 mm SCT
04:00 18 °C 12.9 °C 1008 hPa Calm     72% 0 mm SCT
04:15 18 °C 12.9 °C 1007.7 hPa Calm     72% 0 mm SCT
04:30 18 °C 12.9 °C 1007.3 hPa Calm     72% 0 mm SCT
04:45 18 °C 12.9 °C 1007 hPa Calm     72% 0 mm SCT
05:00 18 °C 12.9 °C 1007.3 hPa Calm     72% 0 mm SCT
05:15 18 °C 12.9 °C 1007.7 hPa Calm     72% 0 mm SCT
05:30 18 °C 12.9 °C 1007.7 hPa Calm     72% 0 mm SCT
05:45 18 °C 12.9 °C 1008 hPa Calm     72% 0 mm SCT
06:00 18 °C 12.9 °C 1008 hPa Calm     72% 0 mm SCT
06:15 18 °C 12.9 °C 1008.4 hPa Calm     72% 0 mm SCT
06:30 18 °C 12.9 °C 1008.4 hPa Calm     72% 0 mm SCT
06:45 18 °C 12.9 °C 1007.3 hPa Calm     72% 0 mm SCT
07:00 18 °C 12.9 °C 1006.7 hPa Calm     72% 0 mm SCT
07:15 18 °C 12.9 °C 1008.4 hPa Calm     72% 0 mm SCT
07:30 18 °C 12.9 °C 1007.3 hPa Calm     72% 0 mm SCT
07:45 18 °C 12.9 °C 1008 hPa Calm     72% 0 mm SCT
08:00 18 °C 12.9 °C 1008.4 hPa Calm     72% 0 mm SCT
08:15 18 °C 12.9 °C 1008 hPa Calm     72% 0 mm SCT
08:30 18 °C 12.9 °C 1007.7 hPa Calm     72% 0 mm SCT
08:45 18 °C 12.9 °C 1008 hPa Calm     72% 0 mm SCT
09:00 18 °C 12.9 °C 1008.4 hPa Calm     72% 0 mm SCT
09:15 18 °C 12.9 °C 1008.4 hPa Calm     72% 0 mm SCT
09:30 18 °C 12.9 °C 1008 hPa Calm     72% 0 mm SCT
09:45 18 °C 12.9 °C 1008.4 hPa Calm     72% 0 mm SCT
10:00 18 °C 12.9 °C 1008.4 hPa Calm     72% 0 mm SCT
10:15 18 °C 12.9 °C 1008.4 hPa Calm     72% 0 mm SCT
10:30 18 °C 12.9 °C 1008.4 hPa Calm     72% 0 mm SCT
10:45 18 °C 12.9 °C 1008.4 hPa Calm     72% 0 mm SCT
11:00 18 °C 12.9 °C 1008.7 hPa Calm     72% 0 mm SCT
11:15 18 °C 12.9 °C 1008.7 hPa Calm     72% 0 mm SCT
11:30 18 °C 12.9 °C 1009 hPa Calm     72% 0 mm SCT
11:45 18 °C 12.9 °C 1009.4 hPa Calm     72% 0 mm SCT
12:00 18 °C 12.9 °C 1008.7 hPa Calm     72% 0 mm SCT
12:15 18 °C 12.9 °C 1008.7 hPa Calm     72% 0 mm SCT
12:30 18 °C 12.9 °C 1009.4 hPa Calm     72% 0 mm SCT
12:45 18 °C 12.9 °C 1009.4 hPa Calm     72% 0 mm SCT
13:00 21.4 °C 19.5 °C 1009 hPa Calm   4.8 km/h 89% 0 mm SCT
13:15 21.8 °C 19.9 °C 1008.4 hPa Calm   4.8 km/h 89% 0 mm SCT
13:30 22.2 °C 19.9 °C 1008.4 hPa Calm   4.8 km/h 87% 0 mm SCT
13:45 22.7 °C 20 °C 1008.4 hPa Calm   4.8 km/h 85% 0 mm SCT
14:00 23.1 °C 20.1 °C 1008.4 hPa Calm   4.8 km/h 83% 0 mm SCT
14:15 23.3 °C 20.4 °C 1008.7 hPa Calm   4.8 km/h 84% 0 mm SCT
14:30 23.6 °C 20.5 °C 1008.7 hPa NW 1.6 km/h 4.8 km/h 83% 0 mm SCT
14:45 24.3 °C 20.7 °C 1008.4 hPa NW 1.6 km/h 3.2 km/h 80% 0 mm SCT
15:00 24.5 °C 20.6 °C 1008 hPa Calm   8 km/h 79% 0 mm SCT
15:15 24.8 °C 20.7 °C 1008 hPa NW 1.6 km/h 4.8 km/h 78% 0 mm SCT
15:30 25.4 °C 20.9 °C 1008 hPa Calm   3.2 km/h 76% 0 mm SCT
15:45 25.8 °C 20.8 °C 1008 hPa Calm   8 km/h 74% 0 mm SCT
16:00 25.4 °C 20.2 °C 1008.4 hPa Calm   3.2 km/h 73% 0 mm SCT
16:15 25.5 °C 20.3 °C 1008.4 hPa NW 1.6 km/h 4.8 km/h 73% 0 mm SCT
16:30 24.2 °C 20.8 °C 1008.7 hPa Calm   8 km/h 81% 0.25 mm SCT
16:45 23.7 °C 21.1 °C 1008.7 hPa Calm   1.6 km/h 85% 0 mm SCT
17:00 23.9 °C 21.1 °C 1008.7 hPa Calm   1.6 km/h 84% 0 mm SCT
17:15 24.6 °C 21.1 °C 1008.7 hPa Calm   1.6 km/h 81% 0 mm SCT
17:30 24.7 °C 21 °C 1008.4 hPa Calm   1.6 km/h 80% 0 mm SCT
17:45 25.1 °C 20.5 °C 1008.7 hPa Calm   1.6 km/h 76% 0 mm SCT
18:00 25.4 °C 21.2 °C 1009 hPa Calm   3.2 km/h 77% 0 mm SCT
18:15 25.5 °C 20.5 °C 1009 hPa Calm   1.6 km/h 74% 0 mm SCT
18:30 24.8 °C 19.4 °C 1009 hPa Calm   1.6 km/h 72% 0 mm SCT
18:45 24.3 °C 18.2 °C 1009 hPa Calm   3.2 km/h 69% 0 mm SCT
19:00 23.9 °C 16.9 °C 1009 hPa Calm   1.6 km/h 65% 0 mm SCT
19:15 23.6 °C 16.9 °C 1009.4 hPa Calm   1.6 km/h 66% 0 mm SCT
19:30 23.1 °C 17.3 °C 1009.4 hPa Calm     70% 0 mm SCT
19:45 22.5 °C 17.2 °C 1009.4 hPa Calm   1.6 km/h 72% 0 mm SCT
20:00 21.9 °C 16.9 °C 1009.4 hPa Calm     73% 0 mm SCT
20:15 21.4 °C 15.9 °C 1009.7 hPa Calm     71% 0 mm SCT
20:30 21 °C 16.2 °C 1010.4 hPa Calm     74% 0 mm SCT
20:45 20.6 °C 15.6 °C 1010.4 hPa Calm     73% 0 mm SCT
21:00 20.2 °C 15.7 °C 1010.4 hPa Calm     75% 0 mm SCT
21:15 19.9 °C 15.7 °C 1010.7 hPa Calm     77% 0 mm SCT
21:30 19.5 °C 15.9 °C 1010.7 hPa Calm     80% 0 mm SCT
21:45 19 °C 15.7 °C 1010.7 hPa Calm     81% 0 mm SCT
22:00 18.6 °C 15.6 °C 1011.1 hPa Calm     83% 0 mm SCT
22:15 18.2 °C 15.4 °C 1011.4 hPa Calm     84% 0 mm SCT
22:30 17.7 °C 15.1 °C 1011.7 hPa Calm     85% 0 mm SCT
22:45 17.9 °C 15.6 °C 1012.1 hPa Calm     86% 0 mm SCT
23:00 17.9 °C 15.3 °C 1012.1 hPa Calm     85% 0 mm SCT
23:15 17.7 °C 15.3 °C 1012.1 hPa Calm     86% 0 mm SCT
23:30 17.3 °C 14.9 °C 1012.4 hPa Calm     86% 0 mm SCT
23:45 16.9 °C 14.9 °C 1012.1 hPa Calm     88% 0 mm SCT
Piedmont Bend
Compliments of Weather Underground - 2 mb